logo tempoitalia

Diretta Meteo Geraldton, Australialunedì 31 agosto ore 13:00

Mappa
Sereno 21 °C Sereno 24 Ore: T.min 11 T.max 22
Ponente Ovest Km/h 16.7 Punto di rugiada: 13 °C Umidità: 60% Visibilità: 10 Km
Il sole sorge alle: 06:36 Il sole tramonta alle: 18:06
31 Agosto 2026 13:00 tempo osservato: Sereno Sereno 21 60 1020 vento: Nord O 16.7
31 Agosto 2026 12:30 tempo osservato: Sereno Sereno 21 64 1020 vento: Nord O 14.8
31 Agosto 2026 12:00 tempo osservato: Poco Nuvoloso Poco Nuvoloso 21 73 1021 vento: Nord O 16.7
31 Agosto 2026 11:30 tempo osservato: Sereno Sereno 22 64 1021 vento: Nord NO 7.4
31 Agosto 2026 11:00 tempo osservato: Poco Nuvoloso Poco Nuvoloso 20 68 1021 vento: Nord O/NO 11.1
31 Agosto 2026 10:30 tempo osservato: Nuvoloso Nuvoloso 19 72 1021 vento: Nord O/SO 11.1
31 Agosto 2026 10:00 tempo osservato: Molto Nuvoloso Molto Nuvoloso 18 77 1021 vento: Nord N 5.5
31 Agosto 2026 09:30 tempo osservato: Nuvoloso Nuvoloso 18 93 1021 vento: Nord N/NE 7.4
31 Agosto 2026 09:00 tempo osservato: Poco Nuvoloso Poco Nuvoloso 16 100 1021 vento: Nord N 9.3
31 Agosto 2026 08:30 tempo osservato: Sereno Sereno 15 100 1021 vento: Nord N/NE 11.1
31 Agosto 2026 08:00 tempo osservato: Poco Nuvoloso Poco Nuvoloso 14 93 1020 vento: Nord N/NE 13
31 Agosto 2026 07:30 tempo osservato: Sereno Sereno 13 100 1020 vento: Nord N/NE 14.8
31 Agosto 2026 07:00 tempo osservato: Poco Nuvoloso Poco Nuvoloso 12 100 1020 vento: Nord N/NE 14.8
31 Agosto 2026 06:30 tempo osservato: Molto Nuvoloso Molto Nuvoloso 12 100 1020 vento: Nord N/NE 14.8
31 Agosto 2026 06:26 tempo osservato: Molto Nuvoloso Molto Nuvoloso 12 100 1020 vento: Nord N/NE 13
31 Agosto 2026 06:12 tempo osservato: Foschia Foschia 12 100 1019 vento: Nord N/NE 13
31 Agosto 2026 06:00 tempo osservato: Nebbia Nebbia 12 93 1019 vento: Nord N/NE 14.8
31 Agosto 2026 05:58 tempo osservato: Nebbia Nebbia 12 93 1019 vento: Nord N/NE 14.8
31 Agosto 2026 05:46 tempo osservato: Foschia Foschia 12 93 1019 vento: Nord N/NE 14.8
31 Agosto 2026 05:30 tempo osservato: Nebbia Nebbia 11 100 1019 vento: Nord N/NE 14.8
31 Agosto 2026 05:17 tempo osservato: Nebbia Nebbia 11 100 1019 vento: Nord N/NE 14.8
31 Agosto 2026 05:15 tempo osservato: Foschia Foschia 11 100 1019 vento: Nord N/NE 14.8
31 Agosto 2026 05:00 tempo osservato: Foschia Foschia 11 93 1019 vento: Nord N/NE 14.8
31 Agosto 2026 04:30 tempo osservato: Poco Nuvoloso Poco Nuvoloso 11 93 1019 vento: Nord N/NE 13
31 Agosto 2026 04:29 tempo osservato: Poco Nuvoloso Poco Nuvoloso 11 93 1019 vento: Nord N/NE 13
31 Agosto 2026 04:00 tempo osservato: Sereno Sereno 11 93 1019 vento: Nord N/NE 14.8
31 Agosto 2026 03:30 tempo osservato: Sereno Sereno 11 93 1019 vento: Nord N/NE 13
31 Agosto 2026 03:00 tempo osservato: Sereno Sereno 11 93 1019 vento: Nord N/NE 13
31 Agosto 2026 02:47 tempo osservato: Nuvoloso Nuvoloso 11 93 1019 vento: Nord N/NE 13
31 Agosto 2026 02:41 tempo osservato: Nuvoloso Nuvoloso 11 93 1019 vento: Nord N/NE 13
31 Agosto 2026 02:32 tempo osservato: Foschia Foschia 11 100 1019 vento: Nord N 13
31 Agosto 2026 02:30 tempo osservato: Nebbia Nebbia 11 100 1019 vento: Nord N 13
31 Agosto 2026 02:28 tempo osservato: Nebbia Nebbia 11 100 1019 vento: Nord N 13
31 Agosto 2026 02:26 tempo osservato: Nebbia Nebbia 11 100 1019 vento: Nord N/NE 13
31 Agosto 2026 02:21 tempo osservato: Foschia Foschia 11 100 1019 vento: Nord N/NE 13
31 Agosto 2026 02:00 tempo osservato: Sereno Sereno 11 100 1019 vento: Nord N/NE 13
31 Agosto 2026 01:30 tempo osservato: Poco Nuvoloso Poco Nuvoloso 11 100 1019 vento: Nord N/NE 13
31 Agosto 2026 01:03 tempo osservato: Molto Nuvoloso Molto Nuvoloso 12 93 1019 vento: Nord N/NE 11.1
31 Agosto 2026 00:30 tempo osservato: Sereno Sereno 11 100 1019 vento: Nord N 11.1
31 Agosto 2026 00:00 tempo osservato: Sereno Sereno 12 93 1019 vento: Nord N 11.1
30 Agosto 2026 23:30 tempo osservato: Sereno Sereno 12 93 1019 vento: Nord N 11.1
30 Agosto 2026 23:00 tempo osservato: Sereno Sereno 12 93 1019 vento: Nord N/NE 11.1
30 Agosto 2026 22:30 tempo osservato: Sereno Sereno 13 93 1019 vento: Nord N/NE 11.1
30 Agosto 2026 22:00 tempo osservato: Sereno Sereno 13 93 1019 vento: Nord N/NE 11.1
30 Agosto 2026 21:30 tempo osservato: Sereno Sereno 13 93 1019 vento: Nord N/NE 9.3
30 Agosto 2026 21:00 tempo osservato: Sereno Sereno 13 93 1019 vento: Nord NE 9.3
30 Agosto 2026 20:30 tempo osservato: Sereno Sereno 13 93 1019 vento: Nord E/NE 7.4
30 Agosto 2026 20:00 tempo osservato: Sereno Sereno 14 87 1019 vento: Nord N 5.5
30 Agosto 2026 19:30 tempo osservato: Sereno Sereno 15 87 1019 vento: Nord N 3.7
30 Agosto 2026 19:00 tempo osservato: Sereno Sereno 16 87 1019 vento: Nord N 5.5
30 Agosto 2026 18:30 tempo osservato: Sereno Sereno 17 88 1018 vento: Nord S/SO 7.4
30 Agosto 2026 18:00 tempo osservato: Sereno Sereno 18 82 1018 vento: Nord S 9.3
30 Agosto 2026 17:30 tempo osservato: Sereno Sereno 19 77 1018 vento: Nord S/SO 11.1
30 Agosto 2026 17:00 tempo osservato: Sereno Sereno 20 72 1018 vento: Nord S/SO 14.8
30 Agosto 2026 16:30 tempo osservato: Sereno Sereno 20 77 1018 vento: Nord S/SO 16.7
30 Agosto 2026 16:00 tempo osservato: Sereno Sereno 21 73 1017 vento: Nord SO 16.7
30 Agosto 2026 15:30 tempo osservato: Sereno Sereno 21 73 1018 vento: Nord S/SO 14.8
30 Agosto 2026 15:00 tempo osservato: Sereno Sereno 22 68 1018 vento: Nord SO 14.8
30 Agosto 2026 14:30 tempo osservato: Sereno Sereno 21 68 1018 vento: Nord SO 14.8
30 Agosto 2026 14:00 tempo osservato: Sereno Sereno 22 68 1018 vento: Nord SO 14.8